Goetzville, MI

2:06 AM EST on January 28, 2015 (GMT -0500)
No. 8 Island | Change Station
CLOSE
Current Station
Personal Weather Station
Location: Cedarville, MI
Elevation: 587 ft
Nearby Weather Stations

Elev 587 ft 45.98 °N, 84.31 °W | Updated 0 second ago

Clear
Clear
1.0 °F
Feels Like 1 °F
N
0.0
Wind Variable Wind from NNW
Gusts 0.0 mph

Today
High -- | Low -- °F
--% Chance of Precip.
Yesterday
High -- | Low -- °F
Precip. -- in
8:03 AM 5:35 PM
First Quarter, 62% visible
Pressure 30.22 in
Visibility 10.0 miles
Clouds Clear
Windchill 1 °F
Dew Point -4 °F
Humidity 78%
Rainfall 0.00 in
Snow Depth Not available.
UV 0 out of 12
Pollen .10 out of 12
Air Quality Not available.
Flu Activity Not available.
METAR KDRM 280655Z AUTO 00000KT 10SM CLR M18/M21 A3022 RMK AO2 T11811212

More Conditions Fewer Conditions

Pressure 30.22 in
Visibility 10.0 miles
Clouds Clear
Windchill 1 °F
Dew Point -4 °F
Humidity 78%
Rainfall 0.00 in
Snow Depth Not available.
UV 0 out of 12
Pollen .10 out of 12
Air Quality Not available.
Flu Activity Not available.
METAR KDRM 280655Z AUTO 00000KT 10SM CLR M18/M21 A3022 RMK AO2 T11811212

More Conditions Fewer Conditions

Nowcast | as of 2:00 am EST on January 28, 2015

At 3 am...mostly clear. Temperature 2 below. Light winds. At 5 am...partly cloudy. Temperature 3 below. Light winds. At 7 am...partly cloudy. Temperature 1 below. Light winds. At 9 am...partly cloudy. Temperature zero. Light winds.

×

10-Day Weather Forecast

Almanac

Astronomy

Jan. 28, 2015 Rise Set
Actual Time
Civil Twilight
Nautical Twilight
Astronomical Twilight
Moon
Length of Visible Light
Length of Day
Tomorrow will be .
, % of the Moon is Illuminated

Today's Extremes

State Highs State Lows

Community

WunderPhotos

Upload Photos

1,791,118 photos uploaded!

WunderBlogs® & News

Nearby

Air Quality

  Air Quality AQ Index Pollutant
Not available.

Snow Depth

Station Depth Elevation

Earthquake Activity

City Distance Mag. Time & Date
Minimum magnitude displayed is 2.5.

Coastal Water Temperatures

Place Temperature

Nearby Weather Stations